createdAt,value
2022-12-03T00:00:56.825Z,44.15
2022-12-03T00:03:25.287Z,53.72
2022-12-03T00:05:53.735Z,38.80
2022-12-03T00:08:22.013Z,86.82
2022-12-03T00:10:50.016Z,55.85
2022-12-03T00:13:18.570Z,31.40
2022-12-03T00:15:46.757Z,47.47
2022-12-03T00:18:15.272Z,71.03
2022-12-03T00:20:43.247Z,55.67
2022-12-03T00:23:11.676Z,46.45
2022-12-03T00:25:39.768Z,50.38
2022-12-03T00:28:08.103Z,50.55
2022-12-03T00:30:36.207Z,36.92
2022-12-03T00:33:05.635Z,32.88
2022-12-03T00:35:33.583Z,24.55
2022-12-03T00:38:02.014Z,27.13
2022-12-03T00:40:30.102Z,22.80
2022-12-03T00:42:58.453Z,28.02
2022-12-03T00:45:26.496Z,29.90
2022-12-03T00:47:55.181Z,24.70
2022-12-03T00:50:23.614Z,25.50
2022-12-03T00:52:53.294Z,28.85
2022-12-03T00:55:21.392Z,29.10
2022-12-03T00:57:49.813Z,31.45
2022-12-03T01:00:18.232Z,36.28
2022-12-03T01:02:46.543Z,31.90
2022-12-03T01:05:14.658Z,28.98
2022-12-03T01:07:43.242Z,32.40
2022-12-03T01:10:11.854Z,25.10
2022-12-03T01:12:40.877Z,28.75
2022-12-03T01:15:10.063Z,27.88
2022-12-03T01:17:39.162Z,31.90
2022-12-03T01:20:09.851Z,27.77
2022-12-03T01:22:38.341Z,24.48
2022-12-03T01:25:07.133Z,29.00
2022-12-03T01:27:35.638Z,21.52
2022-12-03T01:30:05.645Z,19.27
2022-12-03T01:32:34.134Z,21.25
2022-12-03T01:35:02.133Z,20.92
2022-12-03T01:37:30.649Z,18.67
2022-12-03T01:39:58.686Z,25.30
2022-12-03T01:42:30.558Z,24.90
2022-12-03T01:45:00.734Z,19.10
2022-12-03T01:47:32.611Z,18.05
2022-12-03T01:50:08.731Z,19.85
2022-12-03T01:52:39.795Z,22.08
2022-12-03T01:55:15.049Z,22.02
2022-12-03T01:57:50.686Z,34.63
2022-12-03T02:00:22.336Z,21.20
2022-12-03T02:02:57.206Z,20.50
2022-12-03T02:05:31.482Z,24.70
2022-12-03T02:08:01.066Z,21.85
2022-12-03T02:10:36.474Z,15.20
2022-12-03T03:07:08.866Z,18.60
2022-12-03T03:09:37.895Z,19.48
2022-12-03T03:12:06.335Z,23.10
2022-12-03T03:14:35.746Z,19.75
2022-12-03T03:17:04.625Z,17.70
2022-12-03T03:19:34.516Z,20.23
2022-12-03T03:22:02.690Z,20.50
2022-12-03T03:24:31.046Z,17.52
2022-12-03T03:26:59.077Z,19.88
2022-12-03T03:29:27.556Z,26.55
2022-12-03T03:31:56.502Z,19.25
2022-12-03T03:34:25.738Z,18.10
2022-12-03T03:36:53.978Z,25.48
2022-12-03T03:39:22.850Z,18.95
2022-12-03T03:41:51.036Z,17.58
2022-12-03T03:44:19.619Z,14.68
2022-12-03T03:46:49.056Z,22.58
2022-12-03T03:49:17.676Z,24.17
2022-12-03T03:51:45.705Z,18.23
2022-12-03T03:54:14.956Z,17.25
2022-12-03T03:56:43.329Z,20.48
2022-12-03T03:59:14.238Z,19.98
2022-12-03T04:01:45.066Z,21.60
2022-12-03T04:04:21.083Z,20.13
2022-12-03T04:06:49.495Z,18.70
2022-12-03T04:09:17.914Z,19.05
2022-12-03T04:12:04.438Z,21.60
2022-12-03T04:14:32.926Z,21.23
2022-12-03T04:17:01.147Z,18.33
2022-12-03T04:19:30.747Z,19.30
2022-12-03T04:22:17.811Z,15.95
2022-12-03T04:24:47.616Z,18.67
2022-12-03T04:27:34.006Z,22.55
2022-12-03T04:30:02.418Z,17.85
2022-12-03T04:32:49.037Z,22.27
2022-12-03T04:35:35.877Z,18.90
2022-12-03T04:38:04.078Z,16.70
2022-12-03T04:40:50.946Z,20.70
2022-12-03T04:43:18.916Z,23.23
2022-12-03T04:45:48.346Z,18.10
2022-12-03T04:48:16.610Z,16.73
2022-12-03T04:50:44.937Z,21.05
2022-12-03T04:53:13.165Z,19.88
2022-12-03T04:55:41.718Z,23.33
2022-12-03T04:58:10.626Z,17.98
2022-12-03T05:00:40.213Z,16.95
2022-12-03T05:03:08.405Z,16.55
2022-12-03T05:05:36.842Z,16.15
2022-12-03T05:08:05.151Z,19.38
2022-12-03T05:10:33.861Z,19.42
2022-12-03T05:13:01.869Z,18.67
2022-12-03T05:15:30.226Z,20.02
2022-12-03T05:17:58.333Z,18.48
2022-12-03T05:20:41.648Z,15.32
2022-12-03T05:23:11.945Z,15.70
2022-12-03T05:25:41.778Z,24.40
2022-12-03T05:28:09.977Z,18.38
2022-12-03T05:30:38.373Z,14.80
2022-12-03T05:33:06.416Z,16.42
2022-12-03T05:35:34.905Z,16.65
2022-12-03T05:38:03.774Z,18.33
2022-12-03T05:40:32.166Z,11.38
2022-12-03T05:43:02.167Z,12.80
2022-12-03T05:45:32.106Z,11.00
2022-12-03T05:48:01.298Z,12.32
2022-12-03T05:50:32.567Z,15.32
2022-12-03T05:53:16.808Z,7.68
2022-12-03T05:55:45.239Z,6.60
2022-12-03T05:58:13.285Z,6.68
2022-12-03T06:00:43.043Z,4.97
2022-12-03T06:03:11.470Z,3.88
2022-12-03T06:05:40.215Z,6.53
2022-12-03T06:08:08.335Z,4.82
2022-12-03T06:10:37.840Z,7.43
2022-12-03T06:13:05.865Z,4.70
2022-12-03T06:15:38.762Z,4.50
2022-12-03T06:18:10.622Z,6.10
2022-12-03T06:20:39.631Z,4.60
2022-12-03T06:23:07.610Z,5.18
2022-12-03T06:25:35.949Z,4.68
2022-12-03T06:28:04.118Z,4.15
2022-12-03T06:30:34.657Z,4.40
2022-12-03T06:33:02.790Z,5.05
2022-12-03T06:35:31.132Z,4.38
2022-12-03T06:37:59.211Z,3.55
2022-12-03T06:40:27.986Z,5.78
2022-12-03T06:42:56.014Z,3.83
2022-12-03T06:45:24.433Z,3.90
2022-12-03T06:47:52.555Z,5.57
2022-12-03T06:50:22.053Z,4.65
2022-12-03T06:52:50.164Z,7.50
2022-12-03T06:55:18.502Z,5.60
2022-12-03T06:57:46.440Z,5.13
2022-12-03T07:00:15.387Z,4.03
2022-12-03T07:02:45.876Z,4.30
2022-12-03T07:05:15.378Z,8.48
2022-12-03T07:07:43.514Z,5.78
2022-12-03T07:10:15.151Z,13.95
2022-12-03T07:12:43.166Z,4.45
2022-12-03T07:15:12.589Z,5.55
2022-12-03T07:17:40.718Z,4.13
2022-12-03T07:20:10.552Z,4.63
2022-12-03T07:22:38.838Z,5.40
2022-12-03T07:25:08.558Z,4.88
2022-12-03T07:27:36.529Z,5.78
2022-12-03T07:30:09.669Z,4.03
2022-12-03T07:32:37.767Z,3.78
2022-12-03T07:35:08.059Z,5.93
2022-12-03T07:37:36.110Z,3.28
2022-12-03T07:40:05.930Z,5.70
2022-12-03T07:42:34.021Z,8.68
2022-12-03T07:45:02.602Z,9.65
2022-12-03T07:47:30.699Z,8.77
2022-12-03T07:49:59.043Z,6.13
2022-12-03T07:52:27.088Z,5.97
2022-12-03T07:54:55.715Z,7.00
2022-12-03T07:57:24.449Z,4.15
2022-12-03T07:59:53.969Z,4.15
2022-12-03T08:02:22.206Z,4.97
2022-12-03T08:04:51.422Z,5.05
2022-12-03T08:07:24.755Z,3.08
2022-12-03T08:09:55.421Z,4.72
2022-12-03T08:12:40.453Z,9.25
2022-12-03T08:15:18.232Z,11.68
2022-12-03T08:17:48.119Z,10.65
2022-12-03T08:20:20.928Z,4.95
2022-12-03T08:22:51.579Z,9.35
2022-12-03T08:25:31.892Z,5.15
2022-12-03T08:28:21.929Z,9.02
2022-12-03T08:31:02.263Z,3.65
2022-12-03T08:33:35.691Z,7.70
2022-12-03T08:38:59.618Z,3.15
2022-12-03T08:41:48.964Z,7.55
2022-12-03T08:44:28.170Z,5.43
2022-12-03T08:47:13.171Z,3.53
2022-12-03T08:49:41.760Z,3.95
2022-12-03T08:52:15.543Z,4.30
2022-12-03T08:54:46.290Z,8.80
2022-12-03T08:57:35.008Z,3.55
2022-12-03T09:00:20.617Z,4.15
2022-12-03T09:02:52.981Z,8.77
2022-12-03T09:05:28.837Z,3.58
2022-12-03T09:07:57.383Z,4.97
2022-12-03T09:10:25.565Z,4.95
2022-12-03T09:12:54.008Z,4.47
2022-12-03T09:15:21.967Z,2.03
2022-12-03T09:17:51.658Z,6.32
2022-12-03T09:20:19.843Z,5.20
2022-12-03T09:22:48.730Z,2.13
2022-12-03T09:25:17.391Z,4.03
2022-12-03T09:27:46.211Z,3.05
2022-12-03T09:30:14.359Z,4.07
2022-12-03T09:32:44.079Z,3.90
2022-12-03T09:35:12.173Z,2.88
2022-12-03T09:37:41.478Z,5.45
2022-12-03T09:40:11.296Z,2.88
2022-12-03T09:42:40.448Z,2.80
2022-12-03T09:45:12.622Z,4.40
2022-12-03T09:47:46.087Z,1.67
2022-12-03T09:50:16.479Z,3.47
2022-12-03T09:52:45.729Z,2.53
2022-12-03T09:55:24.040Z,2.25
2022-12-03T09:57:54.060Z,3.35
2022-12-03T10:00:26.242Z,2.92
2022-12-03T10:02:59.680Z,5.55
2022-12-03T10:05:29.752Z,8.05
2022-12-03T10:08:07.250Z,5.05
2022-12-03T10:10:36.951Z,5.15
2022-12-03T10:13:06.732Z,2.90
2022-12-03T10:15:34.830Z,2.97
2022-12-03T10:18:18.421Z,14.13
2022-12-03T10:20:46.780Z,2.75
2022-12-03T10:23:27.757Z,10.88
2022-12-03T10:25:57.279Z,6.28
2022-12-03T10:28:47.402Z,2.38
2022-12-03T10:31:15.922Z,11.10
2022-12-03T10:33:47.463Z,3.50
2022-12-03T10:36:21.614Z,6.63
2022-12-03T10:39:16.680Z,2.67
2022-12-03T10:41:45.486Z,6.20
2022-12-03T10:44:22.929Z,3.45
2022-12-03T10:47:21.291Z,7.18
2022-12-03T10:50:03.553Z,2.13
2022-12-03T10:52:32.539Z,2.85
2022-12-03T10:55:02.118Z,2.67
2022-12-03T10:57:30.260Z,7.72
2022-12-03T10:59:58.900Z,18.70
2022-12-03T11:02:26.970Z,3.88
2022-12-03T11:04:55.865Z,2.40
2022-12-03T11:07:26.405Z,6.22
2022-12-03T11:09:56.969Z,2.17
2022-12-03T11:12:28.042Z,3.28
2022-12-03T11:15:05.307Z,4.00
2022-12-03T11:17:50.860Z,4.93
2022-12-03T11:20:24.782Z,3.50
2022-12-03T11:22:56.944Z,8.05
2022-12-03T11:25:26.773Z,2.58
2022-12-03T11:28:13.887Z,4.88
2022-12-03T11:30:51.615Z,3.47
2022-12-03T11:33:35.782Z,4.32
2022-12-03T11:36:04.147Z,4.47
2022-12-03T11:38:42.662Z,2.90
2022-12-03T11:41:24.319Z,2.20
2022-12-03T11:43:52.323Z,2.35
2022-12-03T11:46:37.222Z,4.43
2022-12-03T11:49:25.359Z,7.68
2022-12-03T11:51:53.742Z,6.28
2022-12-03T11:54:23.623Z,3.72
2022-12-03T11:56:56.339Z,2.88
2022-12-03T11:59:24.360Z,3.60
2022-12-03T12:01:52.629Z,2.85
2022-12-03T12:04:36.264Z,2.40
2022-12-03T12:07:04.688Z,6.57
2022-12-03T12:09:49.470Z,2.50
2022-12-03T12:12:30.963Z,5.20
2022-12-03T12:14:59.983Z,2.65
2022-12-03T12:17:33.984Z,2.15
2022-12-03T12:20:27.809Z,3.67
2022-12-03T12:22:56.423Z,3.70
2022-12-03T12:25:30.641Z,4.63
2022-12-03T12:27:58.960Z,4.63
2022-12-03T12:30:27.008Z,3.55
2022-12-03T12:33:10.469Z,3.13
2022-12-03T12:35:38.582Z,3.70
2022-12-03T12:38:06.957Z,2.80
2022-12-03T12:40:37.082Z,6.95
2022-12-03T12:43:16.420Z,3.53
2022-12-03T12:45:47.348Z,4.10
2022-12-03T12:48:32.158Z,4.75
2022-12-03T12:51:12.272Z,4.35
2022-12-03T12:53:43.165Z,3.50
2022-12-03T12:56:23.875Z,6.40
2022-12-03T12:58:53.636Z,4.45
2022-12-03T13:01:28.988Z,4.03
2022-12-03T13:03:58.631Z,2.58
2022-12-03T13:06:29.112Z,4.93
2022-12-03T13:09:01.420Z,3.33
2022-12-03T13:11:46.039Z,3.40
2022-12-03T13:14:19.456Z,3.72
2022-12-03T13:16:50.179Z,5.45
2022-12-03T13:19:23.257Z,2.80
2022-12-03T13:21:56.727Z,5.78
2022-12-03T13:24:34.060Z,5.40
2022-12-03T13:27:20.325Z,7.82
2022-12-03T13:30:14.141Z,3.35
2022-12-03T13:32:43.105Z,3.72
2022-12-03T13:35:30.622Z,5.10
2022-12-03T13:37:59.529Z,3.40
2022-12-03T13:40:31.563Z,4.75
2022-12-03T13:42:59.847Z,4.78
2022-12-03T13:45:45.533Z,3.55
2022-12-03T13:48:25.893Z,3.03
2022-12-03T13:50:54.731Z,5.43
2022-12-03T13:53:25.910Z,3.88
2022-12-03T13:56:15.864Z,3.38
2022-12-03T13:58:43.980Z,2.85
2022-12-03T14:01:12.420Z,7.22
2022-12-03T14:03:40.551Z,4.22
2022-12-03T14:06:09.097Z,3.78
2022-12-03T14:08:38.522Z,5.70
2022-12-03T14:11:08.543Z,4.25
2022-12-03T14:13:37.512Z,2.38
2022-12-03T14:16:06.110Z,3.83
2022-12-03T14:18:35.731Z,2.33
2022-12-03T14:21:04.130Z,3.00
2022-12-03T14:23:32.176Z,3.08
2022-12-03T14:26:00.780Z,2.30
2022-12-03T14:28:28.797Z,4.20
2022-12-03T14:30:57.279Z,6.05
2022-12-03T14:33:28.350Z,3.13
2022-12-03T14:35:57.702Z,7.78
2022-12-03T14:38:25.781Z,2.50
2022-12-03T14:40:54.461Z,3.22
2022-12-03T14:43:22.550Z,2.83
2022-12-03T14:45:52.105Z,2.92
2022-12-03T14:48:22.602Z,3.15
2022-12-03T14:50:51.154Z,3.35
2022-12-03T14:53:25.596Z,7.72
2022-12-03T14:55:57.230Z,3.63
2022-12-03T14:58:27.151Z,4.00
2022-12-03T15:00:55.638Z,3.78
2022-12-03T15:03:23.691Z,4.43
2022-12-03T15:05:52.011Z,6.63
2022-12-03T15:08:20.268Z,3.90
2022-12-03T15:10:48.884Z,3.30
2022-12-03T15:13:16.970Z,5.55
2022-12-03T15:15:45.525Z,5.10
2022-12-03T15:18:13.631Z,3.38
2022-12-03T15:20:41.971Z,3.75
2022-12-03T15:23:14.324Z,18.42
2022-12-03T15:25:43.200Z,3.13
2022-12-03T15:28:11.303Z,2.70
2022-12-03T15:30:39.782Z,4.45
2022-12-03T15:33:08.500Z,4.97
2022-12-03T15:35:37.178Z,6.28
2022-12-03T15:38:05.342Z,5.40
2022-12-03T15:40:34.761Z,4.10
2022-12-03T15:43:02.801Z,4.07
2022-12-03T15:45:32.679Z,9.23
2022-12-03T15:48:01.461Z,6.32
2022-12-03T15:50:30.269Z,8.10
2022-12-03T15:52:58.921Z,7.88
2022-12-03T15:55:27.380Z,5.72
2022-12-03T15:57:55.584Z,3.35
2022-12-03T16:00:24.203Z,8.02
2022-12-03T16:02:53.061Z,6.63
2022-12-03T16:05:21.663Z,3.85
2022-12-03T16:07:49.864Z,4.32
2022-12-03T16:10:21.630Z,7.20
2022-12-03T16:12:49.804Z,4.53
2022-12-03T16:15:21.002Z,7.10
2022-12-03T16:17:53.387Z,2.28
2022-12-03T16:20:21.851Z,7.35
2022-12-03T16:22:49.911Z,2.67
2022-12-03T16:25:18.741Z,3.15
2022-12-03T16:27:46.791Z,2.58
2022-12-03T16:30:15.421Z,3.00
2022-12-03T16:32:43.651Z,4.55
2022-12-03T16:35:12.010Z,3.42
2022-12-03T16:37:40.081Z,5.55
2022-12-03T16:40:09.771Z,9.50
2022-12-03T16:42:37.892Z,10.55
2022-12-03T16:45:10.134Z,11.63
2022-12-03T16:47:38.704Z,17.60
2022-12-03T16:50:10.690Z,6.63
2022-12-03T16:52:42.951Z,11.38
2022-12-03T16:55:12.410Z,10.77
2022-12-03T16:57:40.424Z,6.38
2022-12-03T17:00:09.480Z,11.13
2022-12-03T17:02:37.756Z,10.32
2022-12-03T17:05:06.852Z,5.03
2022-12-03T17:07:34.985Z,9.10
2022-12-03T17:10:04.692Z,5.28
2022-12-03T17:13:01.205Z,5.78
2022-12-03T17:15:23.455Z,5.35
2022-12-03T17:17:51.692Z,4.50
2022-12-03T17:20:20.523Z,5.57
2022-12-03T17:22:48.892Z,6.20
2022-12-03T17:25:17.705Z,6.20
2022-12-03T17:27:46.181Z,8.52
2022-12-03T17:30:16.032Z,10.20
2022-12-03T17:32:44.544Z,8.55
2022-12-03T17:35:13.544Z,9.93
2022-12-03T17:37:41.701Z,11.52
2022-12-03T17:40:13.414Z,12.07
2022-12-03T17:42:42.060Z,16.65
2022-12-03T17:45:11.290Z,18.15
2022-12-03T17:47:39.773Z,18.25
2022-12-03T17:50:09.291Z,23.00
2022-12-03T17:52:37.366Z,24.20
2022-12-03T17:55:14.176Z,17.98
2022-12-03T17:57:46.329Z,25.52
2022-12-03T18:00:15.096Z,28.20
2022-12-03T18:02:43.298Z,19.92
2022-12-03T18:05:11.892Z,24.85
2022-12-03T18:07:40.264Z,15.57
2022-12-03T18:10:08.877Z,20.75
2022-12-03T18:12:37.034Z,22.10
2022-12-03T18:15:05.838Z,27.77
2022-12-03T18:17:34.015Z,25.73
2022-12-03T18:20:03.364Z,33.08
2022-12-03T18:22:31.666Z,41.08
2022-12-03T18:25:00.359Z,26.73
2022-12-03T18:27:28.440Z,21.42
2022-12-03T18:29:57.524Z,27.55
2022-12-03T18:32:29.334Z,18.77
2022-12-03T18:34:59.702Z,15.63
2022-12-03T18:37:29.537Z,15.25
2022-12-03T18:39:59.133Z,13.43
2022-12-03T18:42:27.716Z,14.65
2022-12-03T18:44:57.319Z,20.67
2022-12-03T18:47:28.732Z,18.05
2022-12-03T18:49:57.790Z,15.82
2022-12-03T18:52:26.344Z,16.95
2022-12-03T18:54:57.112Z,18.65
2022-12-03T18:57:25.171Z,17.30
2022-12-03T18:59:53.884Z,15.93
2022-12-03T19:05:12.232Z,17.10
2022-12-03T19:07:40.530Z,21.17
2022-12-03T19:10:11.422Z,16.35
2022-12-03T19:12:39.911Z,16.63
2022-12-03T19:15:09.290Z,14.73
2022-12-03T19:17:39.991Z,17.23
2022-12-03T19:20:12.005Z,18.92
2022-12-03T19:22:40.464Z,27.13
2022-12-03T19:25:09.809Z,35.08
2022-12-03T19:27:38.344Z,36.05
2022-12-03T19:30:09.375Z,25.27
2022-12-03T19:32:37.742Z,22.08
2022-12-03T19:35:07.942Z,20.95
2022-12-03T19:37:36.404Z,19.50
2022-12-03T19:40:06.054Z,25.73
2022-12-03T19:42:34.383Z,26.50
2022-12-03T19:45:03.313Z,22.73
2022-12-03T19:47:33.734Z,22.35
2022-12-03T19:50:03.034Z,21.40
2022-12-03T19:52:31.433Z,20.30
2022-12-03T19:55:00.098Z,18.63
2022-12-03T19:57:29.027Z,18.85
2022-12-03T19:59:57.918Z,26.90
2022-12-03T20:02:26.613Z,21.13
2022-12-03T20:04:55.504Z,22.70
2022-12-03T20:07:23.815Z,22.13
2022-12-03T20:09:53.037Z,17.85
2022-12-03T20:12:21.807Z,20.60
2022-12-03T20:14:52.125Z,20.40
2022-12-03T20:17:20.535Z,22.30
2022-12-03T20:19:49.507Z,22.65
2022-12-03T20:22:17.806Z,19.77
2022-12-03T20:24:46.625Z,17.83
2022-12-03T20:27:19.637Z,13.02
2022-12-03T20:29:51.480Z,11.02
2022-12-03T20:32:19.941Z,9.85
2022-12-03T20:34:50.195Z,11.35
2022-12-03T20:37:18.508Z,6.43
2022-12-03T20:39:50.353Z,9.23
2022-12-03T20:42:18.705Z,4.35
2022-12-03T20:44:47.525Z,25.02
2022-12-03T20:47:16.704Z,12.35
2022-12-03T20:49:46.165Z,9.88
2022-12-03T20:52:14.938Z,9.00
2022-12-03T20:54:45.275Z,4.30
2022-12-03T20:57:13.536Z,8.85
2022-12-03T20:59:42.249Z,7.53
2022-12-03T21:02:11.371Z,6.28
2022-12-03T21:04:40.387Z,4.25
2022-12-03T21:07:08.821Z,6.65
2022-12-03T21:09:37.826Z,8.25
2022-12-03T21:12:06.247Z,6.30
2022-12-03T21:14:36.187Z,5.05
2022-12-03T21:17:09.089Z,7.75
2022-12-03T21:22:07.556Z,3.85
2022-12-03T21:24:36.776Z,2.08
2022-12-03T21:27:05.191Z,1.98
2022-12-03T21:29:33.874Z,2.28
2022-12-03T21:32:02.161Z,3.42
2022-12-03T21:34:36.081Z,2.63
2022-12-03T21:37:05.246Z,3.10
2022-12-03T21:39:34.027Z,1.75
2022-12-03T21:42:18.791Z,4.03
2022-12-03T21:44:52.174Z,1.63
2022-12-03T21:47:20.845Z,2.50
2022-12-03T21:49:49.668Z,1.70
2022-12-03T21:52:18.100Z,1.85
2022-12-03T21:54:46.854Z,2.30
2022-12-03T21:57:15.285Z,5.38
2022-12-03T21:59:43.868Z,2.22
2022-12-03T22:02:13.081Z,2.58
2022-12-03T22:04:41.894Z,1.85
2022-12-03T22:07:10.363Z,3.05
2022-12-03T22:09:39.706Z,8.98
2022-12-03T22:12:08.185Z,1.80
2022-12-03T22:14:38.169Z,3.53
2022-12-03T22:17:06.455Z,2.63
2022-12-03T22:19:35.066Z,2.08
2022-12-03T22:22:03.402Z,2.97
2022-12-03T22:24:32.132Z,2.15
2022-12-03T22:27:00.445Z,1.95
2022-12-03T22:29:29.233Z,4.60
2022-12-03T22:31:57.572Z,11.40
2022-12-03T22:34:26.229Z,4.20
2022-12-03T22:36:54.481Z,7.00
2022-12-03T22:39:23.144Z,5.30
2022-12-03T22:41:51.620Z,1.90
2022-12-03T22:44:20.466Z,2.78
2022-12-03T22:46:48.839Z,5.57
2022-12-03T22:49:17.620Z,1.80
2022-12-03T22:51:47.555Z,2.30
2022-12-03T22:54:19.431Z,2.22
2022-12-03T22:56:52.130Z,4.07
2022-12-03T22:59:20.714Z,2.28
2022-12-03T23:01:49.046Z,3.20
2022-12-03T23:04:19.075Z,1.88
2022-12-03T23:06:47.453Z,3.20
2022-12-03T23:09:17.256Z,3.70
2022-12-03T23:11:45.839Z,1.88
2022-12-03T23:14:14.537Z,2.10
2022-12-03T23:16:42.700Z,2.83
2022-12-03T23:19:11.620Z,1.30
2022-12-03T23:21:39.794Z,1.80
2022-12-03T23:24:10.528Z,2.60
2022-12-03T23:26:39.745Z,3.67
2022-12-03T23:29:09.347Z,5.70
2022-12-03T23:31:37.611Z,1.58
2022-12-03T23:34:07.827Z,3.90
2022-12-03T23:36:36.148Z,1.70
2022-12-03T23:39:04.607Z,1.30
2022-12-03T23:41:32.643Z,3.15
2022-12-03T23:44:02.049Z,2.47
2022-12-03T23:46:30.301Z,3.03
2022-12-03T23:49:00.369Z,2.72
2022-12-03T23:51:28.652Z,1.90
2022-12-03T23:53:57.209Z,1.88
2022-12-03T23:56:30.802Z,1.42
2022-12-03T23:58:59.571Z,1.00
